createdAt,value
2018-04-07T00:02:09.434Z,53.40
2018-04-07T00:04:37.737Z,53.40
2018-04-07T00:07:05.974Z,53.40
2018-04-07T00:09:34.973Z,53.30
2018-04-07T00:12:03.973Z,53.20
2018-04-07T00:14:32.273Z,53.20
2018-04-07T00:17:00.526Z,53.40
2018-04-07T00:19:28.761Z,53.20
2018-04-07T00:21:56.988Z,52.90
2018-04-07T00:24:25.271Z,52.60
2018-04-07T00:26:53.587Z,52.40
2018-04-07T00:29:21.817Z,52.30
2018-04-07T00:31:50.101Z,52.50
2018-04-07T00:34:18.347Z,52.40
2018-04-07T00:36:46.588Z,52.70
2018-04-07T00:39:14.921Z,52.80
2018-04-07T00:41:43.197Z,52.60
2018-04-07T00:44:11.462Z,52.50
2018-04-07T00:46:39.697Z,52.10
2018-04-07T00:49:08.011Z,52.40
2018-04-07T00:51:36.296Z,52.30
2018-04-07T00:54:04.607Z,52.40
2018-04-07T00:56:32.824Z,51.70
2018-04-07T00:59:01.057Z,52.30
2018-04-07T01:01:29.405Z,52.20
2018-04-07T01:03:57.634Z,51.90
2018-04-07T01:06:26.641Z,51.60
2018-04-07T01:08:55.637Z,51.50
2018-04-07T01:11:23.947Z,51.60
2018-04-07T01:13:52.181Z,51.30
2018-04-07T01:16:21.186Z,51.40
2018-04-07T01:18:49.489Z,51.50
2018-04-07T01:21:17.757Z,51.30
2018-04-07T01:23:46.002Z,51.00
2018-04-07T01:26:15.030Z,50.90
2018-04-07T01:28:43.275Z,51.00
2018-04-07T01:31:11.584Z,51.10
2018-04-07T01:33:39.826Z,51.30
2018-04-07T01:36:08.073Z,51.40
2018-04-07T01:38:36.330Z,51.50
2018-04-07T01:41:04.645Z,51.70
2018-04-07T01:43:33.658Z,51.70
2018-04-07T01:46:01.946Z,51.70
2018-04-07T01:48:30.185Z,51.40
2018-04-07T01:50:59.209Z,51.80
2018-04-07T01:53:27.446Z,51.80
2018-04-07T01:55:56.461Z,51.40
2018-04-07T01:58:24.686Z,51.40
2018-04-07T02:00:52.934Z,51.00
2018-04-07T02:03:21.169Z,50.90
2018-04-07T02:05:50.195Z,51.10
2018-04-07T02:08:18.434Z,51.10
2018-04-07T02:10:47.440Z,50.60
2018-04-07T02:13:15.714Z,50.50
2018-04-07T02:15:44.018Z,50.30
2018-04-07T02:18:12.274Z,50.40
2018-04-07T02:20:40.509Z,50.00
2018-04-07T02:23:08.842Z,50.10
2018-04-07T02:25:37.081Z,50.80
2018-04-07T02:28:06.093Z,50.40
2018-04-07T02:30:34.331Z,50.40
2018-04-07T02:33:02.661Z,50.40
2018-04-07T02:35:30.931Z,50.40
2018-04-07T02:37:59.180Z,49.90
2018-04-07T02:40:28.187Z,49.70
2018-04-07T02:42:56.432Z,49.70
2018-04-07T02:45:25.439Z,49.60
2018-04-07T02:47:54.447Z,49.70
2018-04-07T02:50:22.749Z,49.80
2018-04-07T02:52:51.018Z,49.60
2018-04-07T02:55:19.282Z,50.00
2018-04-07T02:57:47.526Z,50.00
2018-04-07T03:00:16.534Z,50.00
2018-04-07T03:02:44.785Z,50.00
2018-04-07T03:05:13.824Z,50.40
2018-04-07T03:07:42.105Z,49.70
2018-04-07T03:10:10.374Z,49.80
2018-04-07T03:12:38.622Z,49.70
2018-04-07T03:15:06.859Z,49.60
2018-04-07T03:17:35.109Z,49.40
2018-04-07T03:20:03.370Z,49.50
2018-04-07T03:22:31.650Z,49.40
2018-04-07T03:24:59.890Z,49.30
2018-04-07T03:30:04.360Z,49.40
2018-04-07T03:32:32.639Z,49.40
2018-04-07T03:35:00.885Z,49.30
2018-04-07T03:37:29.126Z,49.30
2018-04-07T03:39:57.459Z,49.20
2018-04-07T03:42:25.699Z,49.30
2018-04-07T03:44:54.726Z,49.30
2018-04-07T03:47:23.005Z,49.90
2018-04-07T03:49:51.259Z,49.30
2018-04-07T03:52:19.497Z,49.40
2018-04-07T03:54:47.835Z,49.50
2018-04-07T03:57:16.077Z,49.80
2018-04-07T03:59:45.080Z,49.60
2018-04-07T04:02:13.313Z,49.70
2018-04-07T04:04:41.554Z,49.80
2018-04-07T04:07:09.814Z,49.70
2018-04-07T04:09:38.049Z,49.80
2018-04-07T04:12:07.085Z,49.80
2018-04-07T04:14:35.318Z,49.90
2018-04-07T04:17:04.844Z,50.00
2018-04-07T04:19:33.090Z,50.00
2018-04-07T04:22:01.420Z,49.80
2018-04-07T04:24:29.734Z,49.90
2018-04-07T04:26:57.972Z,49.80
2018-04-07T04:29:26.250Z,49.70
2018-04-07T04:31:54.485Z,49.60
2018-04-07T04:34:23.511Z,49.40
2018-04-07T04:36:51.752Z,49.40
2018-04-07T04:39:20.785Z,49.40
2018-04-07T04:41:49.021Z,49.40
2018-04-07T04:44:18.048Z,49.40
2018-04-07T04:46:46.292Z,49.40
2018-04-07T04:49:15.297Z,49.00
2018-04-07T04:51:43.558Z,49.00
2018-04-07T04:54:12.549Z,49.00
2018-04-07T04:56:41.566Z,48.90
2018-04-07T04:59:09.850Z,48.90
2018-04-07T05:01:38.473Z,48.90
2018-04-07T05:04:06.701Z,48.80
2018-04-07T05:06:34.962Z,48.70
2018-04-07T05:09:03.196Z,48.30
2018-04-07T05:11:31.425Z,48.40
2018-04-07T05:13:59.679Z,48.30
2018-04-07T05:16:27.926Z,48.20
2018-04-07T05:18:56.253Z,47.90
2018-04-07T05:21:24.532Z,47.50
2018-04-07T05:23:52.805Z,47.30
2018-04-07T05:26:21.043Z,47.10
2018-04-07T05:28:50.079Z,46.30
2018-04-07T05:31:18.307Z,46.30
2018-04-07T05:33:47.306Z,45.70
2018-04-07T05:36:16.318Z,45.80
2018-04-07T05:38:44.626Z,45.70
2018-04-07T05:41:12.893Z,45.10
2018-04-07T05:43:41.134Z,44.40
2018-04-07T05:46:09.688Z,43.30
2018-04-07T05:48:37.918Z,42.40
2018-04-07T05:51:06.194Z,41.20
2018-04-07T05:53:34.439Z,40.60
2018-04-07T05:56:03.454Z,39.50
2018-04-07T05:58:31.738Z,39.40
2018-04-07T06:00:59.993Z,39.10
2018-04-07T06:03:28.241Z,38.90
2018-04-07T06:05:57.283Z,38.80
2018-04-07T06:08:25.562Z,38.80
2018-04-07T06:10:53.806Z,39.10
2018-04-07T06:13:22.088Z,40.00
2018-04-07T06:15:50.383Z,40.60
2018-04-07T06:18:18.625Z,40.80
2018-04-07T06:20:46.880Z,40.90
2018-04-07T06:23:15.895Z,40.50
2018-04-07T06:25:44.149Z,40.50
2018-04-07T06:28:13.213Z,40.30
2018-04-07T06:30:41.445Z,40.30
2018-04-07T06:33:09.690Z,39.70
2018-04-07T06:35:38.952Z,39.20
2018-04-07T06:38:07.321Z,39.20
2018-04-07T06:40:35.597Z,39.60
2018-04-07T06:43:04.362Z,37.60
2018-04-07T06:45:32.623Z,36.30
2018-04-07T06:48:00.970Z,36.60
2018-04-07T06:50:29.713Z,36.20
2018-04-07T06:52:58.026Z,35.50
2018-04-07T06:55:26.365Z,35.00
2018-04-07T06:57:54.626Z,34.50
2018-04-07T07:00:22.874Z,34.70
2018-04-07T07:02:51.915Z,33.00
2018-04-07T07:05:20.181Z,32.90
2018-04-07T07:07:48.461Z,33.30
2018-04-07T07:10:16.710Z,32.60
2018-04-07T07:12:45.015Z,33.00
2018-04-07T07:15:13.265Z,32.90
2018-04-07T07:17:41.514Z,32.50
2018-04-07T07:20:10.534Z,31.10
2018-04-07T07:22:38.839Z,31.70
2018-04-07T07:25:07.114Z,31.50
2018-04-07T07:27:35.357Z,31.50
2018-04-07T07:30:04.394Z,31.50
2018-04-07T07:32:32.630Z,31.50
2018-04-07T07:35:00.927Z,31.70
2018-04-07T07:37:29.171Z,31.20
2018-04-07T07:39:57.517Z,30.30
2018-04-07T07:42:25.738Z,30.70
2018-04-07T07:44:54.043Z,30.70
2018-04-07T07:47:22.324Z,30.70
2018-04-07T07:49:50.553Z,29.80
2018-04-07T07:52:18.810Z,29.10
2018-04-07T07:54:47.850Z,29.30
2018-04-07T07:57:16.112Z,29.30
2018-04-07T07:59:45.809Z,28.90
2018-04-07T08:02:14.105Z,28.80
2018-04-07T08:04:42.346Z,28.50
2018-04-07T08:07:11.412Z,27.90
2018-04-07T08:09:39.651Z,27.90
2018-04-07T08:12:07.926Z,27.50
2018-04-07T08:14:36.174Z,27.70
2018-04-07T08:17:04.462Z,28.20
2018-04-07T08:19:32.752Z,29.10
2018-04-07T08:22:00.998Z,28.20
2018-04-07T08:24:29.302Z,28.70
2018-04-07T08:26:57.587Z,28.60
2018-04-07T08:29:25.868Z,27.60
2018-04-07T08:31:54.086Z,26.60
2018-04-07T08:34:23.315Z,26.90
2018-04-07T08:36:51.566Z,26.90
2018-04-07T08:39:20.643Z,27.50
2018-04-07T08:41:48.847Z,27.40
2018-04-07T08:44:17.146Z,28.00
2018-04-07T08:46:45.397Z,27.10
2018-04-07T08:49:13.640Z,27.70
2018-04-07T08:51:41.974Z,27.20
2018-04-07T08:54:10.250Z,26.20
2018-04-07T08:56:38.522Z,26.30
2018-04-07T08:59:06.803Z,26.10
2018-04-07T09:01:35.062Z,26.40
2018-04-07T09:04:03.346Z,26.30
2018-04-07T09:06:31.724Z,26.10
2018-04-07T09:09:00.003Z,25.80
2018-04-07T09:11:28.274Z,26.30
2018-04-07T09:13:56.562Z,26.50
2018-04-07T09:16:24.826Z,26.20
2018-04-07T09:18:53.087Z,25.90
2018-04-07T09:21:21.329Z,26.50
2018-04-07T09:23:50.351Z,25.30
2018-04-07T09:26:18.645Z,25.30
2018-04-07T09:28:46.922Z,24.60
2018-04-07T09:31:20.922Z,24.50
2018-04-07T09:33:49.186Z,24.90
2018-04-07T09:36:17.482Z,26.20
2018-04-07T09:38:45.726Z,25.10
2018-04-07T09:41:13.970Z,26.30
2018-04-07T09:43:42.217Z,24.80
2018-04-07T09:46:10.487Z,25.30
2018-04-07T09:48:38.754Z,24.90
2018-04-07T09:51:07.001Z,24.90
2018-04-07T09:53:35.305Z,25.50
2018-04-07T09:56:03.557Z,29.20
2018-04-07T09:58:31.795Z,28.30
2018-04-07T10:01:01.046Z,27.90
2018-04-07T10:03:29.285Z,27.80
2018-04-07T10:05:58.293Z,27.80
2018-04-07T10:08:26.597Z,27.80
2018-04-07T10:10:54.843Z,27.80
2018-04-07T10:13:23.093Z,27.20
2018-04-07T10:15:51.333Z,26.50
2018-04-07T10:18:19.600Z,27.00
2018-04-07T10:20:47.911Z,26.20
2018-04-07T10:23:16.142Z,24.80
2018-04-07T10:25:44.382Z,24.10
2018-04-07T10:28:13.405Z,23.20
2018-04-07T10:30:41.638Z,23.20
2018-04-07T10:33:10.665Z,24.90
2018-04-07T10:35:38.926Z,24.30
2018-04-07T10:38:07.166Z,24.00
2018-04-07T10:40:35.514Z,23.40
2018-04-07T10:43:03.755Z,23.80
2018-04-07T10:45:32.063Z,22.90
2018-04-07T10:48:00.346Z,23.00
2018-04-07T10:50:28.610Z,22.90
2018-04-07T10:52:56.855Z,23.10
2018-04-07T10:55:25.119Z,24.20
2018-04-07T10:57:54.150Z,23.50
2018-04-07T11:00:22.393Z,23.50
2018-04-07T11:02:51.439Z,24.90
2018-04-07T11:05:19.668Z,25.00
2018-04-07T11:07:47.918Z,24.80
2018-04-07T11:10:16.246Z,24.90
2018-04-07T11:12:44.514Z,24.00
2018-04-07T11:15:12.747Z,24.50
2018-04-07T11:17:41.079Z,24.90
2018-04-07T11:20:09.350Z,25.80
2018-04-07T11:22:37.734Z,26.40
2018-04-07T11:25:06.011Z,25.70
2018-04-07T11:27:34.251Z,25.60
2018-04-07T11:30:03.003Z,25.70
2018-04-07T11:32:31.242Z,26.10
2018-04-07T11:34:59.489Z,25.20
2018-04-07T11:37:27.734Z,25.60
2018-04-07T11:39:56.074Z,26.20
2018-04-07T11:42:24.310Z,25.10
2018-04-07T11:44:53.437Z,25.80
2018-04-07T11:47:21.714Z,25.80
2018-04-07T11:49:49.958Z,26.70
2018-04-07T11:52:18.264Z,27.90
2018-04-07T11:54:46.497Z,27.60
2018-04-07T11:57:15.509Z,27.60
2018-04-07T11:59:43.749Z,27.60
2018-04-07T12:02:12.086Z,27.90
2018-04-07T12:04:40.380Z,28.00
2018-04-07T12:07:08.646Z,28.90
2018-04-07T12:09:36.918Z,28.00
2018-04-07T12:12:05.162Z,28.70
2018-04-07T12:14:33.462Z,28.10
2018-04-07T12:17:02.833Z,28.00
2018-04-07T12:19:32.577Z,27.60
2018-04-07T12:22:00.830Z,27.60
2018-04-07T12:24:29.082Z,27.30
2018-04-07T12:26:58.122Z,27.30
2018-04-07T12:29:26.373Z,27.20
2018-04-07T12:31:54.670Z,27.50
2018-04-07T12:34:22.941Z,27.40
2018-04-07T12:36:51.191Z,26.90
2018-04-07T12:39:20.226Z,27.40
2018-04-07T12:41:48.497Z,27.40
2018-04-07T12:44:16.742Z,27.10
2018-04-07T12:46:45.042Z,27.40
2018-04-07T12:49:13.338Z,27.60
2018-04-07T12:51:41.589Z,26.70
2018-04-07T12:54:09.875Z,26.80
2018-04-07T12:56:38.126Z,27.10
2018-04-07T12:59:06.373Z,27.90
2018-04-07T13:01:35.452Z,26.60
2018-04-07T13:04:03.673Z,26.60
2018-04-07T13:06:31.939Z,27.00
2018-04-07T13:09:00.181Z,26.00
2018-04-07T13:11:28.518Z,25.70
2018-04-07T13:13:57.716Z,26.20
2018-04-07T13:16:25.953Z,25.90
2018-04-07T13:18:54.206Z,26.80
2018-04-07T13:21:22.538Z,27.20
2018-04-07T13:23:50.786Z,26.00
2018-04-07T13:26:19.535Z,26.30
2018-04-07T13:28:47.776Z,25.70
2018-04-07T13:31:16.052Z,25.70
2018-04-07T13:33:44.313Z,26.00
2018-04-07T13:36:12.575Z,25.50
2018-04-07T13:38:40.874Z,24.80
2018-04-07T13:41:09.129Z,25.10
2018-04-07T13:43:37.371Z,24.50
2018-04-07T13:46:05.640Z,25.60
2018-04-07T13:48:33.879Z,24.50
2018-04-07T13:51:02.148Z,24.70
2018-04-07T13:53:30.391Z,24.50
2018-04-07T13:55:59.415Z,24.30
2018-04-07T13:58:27.685Z,24.30
2018-04-07T14:00:55.950Z,23.60
2018-04-07T14:03:24.197Z,22.80
2018-04-07T14:05:53.231Z,22.90
2018-04-07T14:08:21.479Z,22.90
2018-04-07T14:10:49.721Z,22.60
2018-04-07T14:13:18.074Z,22.80
2018-04-07T14:15:46.312Z,23.60
2018-04-07T14:18:14.563Z,23.20
2018-04-07T14:20:43.602Z,22.50
2018-04-07T14:23:11.849Z,22.50
2018-04-07T14:25:40.094Z,22.70
2018-04-07T14:28:08.439Z,22.60
2018-04-07T14:30:36.681Z,22.60
2018-04-07T14:33:04.978Z,22.40
2018-04-07T14:35:33.226Z,23.00
2018-04-07T14:38:01.474Z,23.40
2018-04-07T14:40:29.806Z,25.00
2018-04-07T14:42:58.074Z,26.10
2018-04-07T14:45:26.314Z,26.00
2018-04-07T14:47:55.350Z,25.70
2018-04-07T14:50:23.602Z,25.60
2018-04-07T14:52:51.843Z,23.70
2018-04-07T14:55:20.093Z,23.40
2018-04-07T14:57:48.358Z,25.10
2018-04-07T15:00:16.647Z,25.30
2018-04-07T15:02:44.942Z,25.10
2018-04-07T15:05:13.141Z,25.40
2018-04-07T15:07:42.183Z,27.10
2018-04-07T15:10:10.433Z,27.10
2018-04-07T15:12:38.677Z,27.00
2018-04-07T15:15:07.686Z,26.50
2018-04-07T15:17:35.934Z,26.50
2018-04-07T15:20:04.940Z,27.20
2018-04-07T15:25:14.838Z,26.90
2018-04-07T15:27:43.117Z,27.60
2018-04-07T15:30:11.376Z,27.60
2018-04-07T15:32:39.618Z,27.90
2018-04-07T15:35:08.970Z,28.20
2018-04-07T15:37:37.252Z,28.20
2018-04-07T15:40:05.498Z,31.60
2018-04-07T15:42:33.771Z,32.10
2018-04-07T15:45:02.034Z,31.70
2018-04-07T15:47:31.032Z,29.30
2018-04-07T15:49:59.277Z,28.80
2018-04-07T15:52:27.525Z,29.10
2018-04-07T15:54:55.782Z,29.10
2018-04-07T15:57:24.058Z,29.60
2018-04-07T15:59:52.322Z,31.70
2018-04-07T16:02:20.614Z,31.40
2018-04-07T16:04:48.870Z,29.70
2018-04-07T16:07:17.115Z,30.40
2018-04-07T16:09:46.143Z,29.70
2018-04-07T16:12:14.382Z,29.10
2018-04-07T16:14:43.402Z,30.80
2018-04-07T16:17:11.658Z,30.80
2018-04-07T16:19:40.699Z,32.50
2018-04-07T16:22:08.951Z,32.50
2018-04-07T16:24:37.242Z,32.80
2018-04-07T16:27:05.497Z,32.90
2018-04-07T16:29:33.800Z,34.80
2018-04-07T16:32:02.146Z,38.10
2018-04-07T16:34:30.390Z,38.30
2018-04-07T16:36:59.437Z,39.70
2018-04-07T16:39:27.693Z,39.40
2018-04-07T16:41:55.942Z,39.20
2018-04-07T16:44:24.998Z,39.80
2018-04-07T16:46:53.250Z,39.70
2018-04-07T16:49:21.534Z,39.50
2018-04-07T16:51:49.782Z,40.60
2018-04-07T16:54:18.121Z,39.90
2018-04-07T16:56:46.342Z,40.50
2018-04-07T16:59:14.598Z,40.00
2018-04-07T17:01:43.626Z,39.90
2018-04-07T17:04:12.006Z,39.90
2018-04-07T17:06:40.258Z,40.00
2018-04-07T17:09:08.556Z,39.70
2018-04-07T17:11:36.837Z,39.50
2018-04-07T17:14:05.110Z,39.50
2018-04-07T17:16:33.381Z,39.30
2018-04-07T17:19:01.641Z,39.00
2018-04-07T17:21:29.934Z,39.10
2018-04-07T17:23:58.232Z,39.40
2018-04-07T17:26:26.481Z,39.50
2018-04-07T17:28:54.744Z,39.80
2018-04-07T17:31:23.037Z,40.10
2018-04-07T17:33:51.286Z,40.50
2018-04-07T17:36:19.542Z,40.20
2018-04-07T17:38:47.806Z,40.50
2018-04-07T17:41:16.822Z,40.20
2018-04-07T17:43:45.130Z,40.20
2018-04-07T17:46:13.382Z,40.30
2018-04-07T17:48:41.647Z,40.90
2018-04-07T17:51:09.907Z,41.20
2018-04-07T17:53:38.964Z,42.20
2018-04-07T17:56:07.237Z,42.20
2018-04-07T17:58:35.606Z,42.20
2018-04-07T18:01:03.865Z,42.50
2018-04-07T18:03:32.137Z,42.70
2018-04-07T18:06:00.435Z,42.90
2018-04-07T18:08:28.705Z,43.50
2018-04-07T18:10:56.978Z,43.90
2018-04-07T18:13:25.253Z,44.40
2018-04-07T18:15:53.518Z,44.80
2018-04-07T18:18:21.806Z,45.10
2018-04-07T18:20:50.071Z,45.90
2018-04-07T18:23:18.326Z,47.10
2018-04-07T18:25:46.614Z,48.20
2018-04-07T18:28:14.902Z,48.20
2018-04-07T18:30:43.178Z,48.50
2018-04-07T18:33:11.495Z,47.90
2018-04-07T18:35:39.730Z,48.10
2018-04-07T18:38:08.014Z,48.20
2018-04-07T18:40:36.279Z,48.00
2018-04-07T18:43:04.579Z,48.30
2018-04-07T18:45:32.846Z,47.90
2018-04-07T18:48:01.105Z,48.40
2018-04-07T18:50:29.366Z,48.20
2018-04-07T18:52:57.625Z,48.20
2018-04-07T18:55:25.887Z,48.30
2018-04-07T18:57:55.857Z,48.60
2018-04-07T19:00:24.175Z,48.60
2018-04-07T19:02:52.417Z,48.80
2018-04-07T19:05:20.673Z,49.60
2018-04-07T19:07:48.943Z,50.00
2018-04-07T19:10:17.210Z,50.50
2018-04-07T19:12:45.474Z,50.90
2018-04-07T19:15:13.736Z,51.80
2018-04-07T19:17:42.878Z,52.30
2018-04-07T19:20:11.146Z,52.30
2018-04-07T19:22:39.423Z,52.00
2018-04-07T19:25:08.606Z,52.30
2018-04-07T19:27:36.889Z,52.20
2018-04-07T19:30:05.143Z,52.20
2018-04-07T19:32:33.403Z,52.50
2018-04-07T19:35:01.680Z,53.00
2018-04-07T19:37:30.703Z,53.10
2018-04-07T19:39:58.973Z,53.10
2018-04-07T19:42:27.224Z,53.50
2018-04-07T19:44:56.260Z,54.10
2018-04-07T19:47:24.509Z,54.10
2018-04-07T19:49:52.786Z,53.50
2018-04-07T19:52:21.039Z,52.70
2018-04-07T19:54:50.173Z,51.00
2018-04-07T19:57:18.430Z,51.00
2018-04-07T19:59:46.684Z,49.90
2018-04-07T20:02:15.718Z,49.00
2018-04-07T20:04:44.001Z,48.90
2018-04-07T20:07:12.275Z,48.50
2018-04-07T20:09:40.531Z,48.60
2018-04-07T20:12:08.823Z,48.50
2018-04-07T20:14:37.083Z,48.30
2018-04-07T20:17:05.354Z,48.20
2018-04-07T20:19:33.686Z,48.30
2018-04-07T20:22:02.034Z,48.20
2018-04-07T20:24:30.294Z,48.20
2018-04-07T20:26:58.554Z,48.10
2018-04-07T20:29:26.854Z,48.30
2018-04-07T20:31:55.596Z,48.30
2018-04-07T20:34:25.351Z,48.80
2018-04-07T20:36:53.634Z,48.80
2018-04-07T20:39:22.019Z,48.80
2018-04-07T20:41:50.266Z,49.10
2018-04-07T20:44:33.501Z,49.10
2018-04-07T20:47:01.794Z,49.30
2018-04-07T20:49:30.018Z,49.50
2018-04-07T20:51:58.329Z,49.10
2018-04-07T20:54:26.609Z,48.80
2018-04-07T20:56:54.865Z,49.40
2018-04-07T20:59:23.324Z,49.60
2018-04-07T21:01:51.518Z,50.00
2018-04-07T21:04:19.814Z,50.40
2018-04-07T21:06:48.074Z,50.40
2018-04-07T21:09:16.337Z,51.10
2018-04-07T21:11:44.647Z,51.10
2018-04-07T21:14:12.903Z,51.00
2018-04-07T21:16:41.192Z,51.40
2018-04-07T21:19:09.503Z,51.70
2018-04-07T21:21:37.756Z,51.90
2018-04-07T21:24:06.117Z,52.50
2018-04-07T21:26:34.394Z,52.60
2018-04-07T21:29:02.648Z,52.30
2018-04-07T21:31:30.905Z,52.20
2018-04-07T21:33:59.162Z,52.20
2018-04-07T21:36:28.215Z,52.10
2018-04-07T21:38:56.484Z,52.10
2018-04-07T21:41:24.749Z,52.50
2018-04-07T21:43:52.998Z,52.80
2018-04-07T21:46:22.033Z,53.90
2018-04-07T21:48:50.285Z,53.90
2018-04-07T21:51:18.537Z,54.30
2018-04-07T21:53:47.579Z,54.90
2018-04-07T21:56:15.842Z,54.90
2018-04-07T21:58:44.100Z,54.80
2018-04-07T22:01:12.411Z,55.00
2018-04-07T22:03:40.659Z,55.10
2018-04-07T22:06:09.358Z,55.90
2018-04-07T22:08:37.605Z,56.10
2018-04-07T22:11:05.867Z,56.60
2018-04-07T22:13:34.897Z,56.30
2018-04-07T22:16:03.162Z,56.40
2018-04-07T22:18:31.418Z,56.80
2018-04-07T22:20:59.702Z,57.80
2018-04-07T22:23:28.006Z,57.60
2018-04-07T22:25:56.283Z,58.40
2018-04-07T22:28:24.554Z,58.50
2018-04-07T22:30:52.809Z,58.90
2018-04-07T22:33:21.062Z,59.20
2018-04-07T22:35:49.333Z,59.90
2018-04-07T22:38:18.354Z,60.60
2018-04-07T22:40:46.611Z,60.60
2018-04-07T22:43:14.880Z,61.70
2018-04-07T22:45:43.918Z,63.50
2018-04-07T22:48:12.293Z,63.60
2018-04-07T22:50:40.554Z,64.10
2018-04-07T22:53:08.812Z,64.70
2018-04-07T22:55:37.065Z,64.80
2018-04-07T22:58:06.121Z,65.70
2018-04-07T23:00:34.374Z,65.70
2018-04-07T23:03:02.634Z,65.60
2018-04-07T23:05:30.894Z,65.80
2018-04-07T23:07:59.910Z,66.70
2018-04-07T23:10:28.205Z,66.70
2018-04-07T23:12:56.457Z,66.70
2018-04-07T23:15:24.714Z,67.40
2018-04-07T23:17:54.653Z,67.90
2018-04-07T23:20:22.901Z,67.80
2018-04-07T23:22:51.914Z,68.20
2018-04-07T23:25:20.214Z,68.20
2018-04-07T23:27:48.458Z,68.90
2018-04-07T23:30:16.710Z,69.00
2018-04-07T23:32:44.947Z,69.40
2018-04-07T23:35:13.192Z,69.60
2018-04-07T23:37:41.430Z,69.90
2018-04-07T23:40:09.678Z,69.10
2018-04-07T23:42:37.934Z,68.70
2018-04-07T23:45:06.186Z,66.50
2018-04-07T23:47:34.490Z,65.20
2018-04-07T23:50:02.770Z,63.40
2018-04-07T23:52:31.034Z,62.20
2018-04-07T23:54:59.305Z,61.30
2018-04-07T23:57:27.546Z,60.50
2018-04-07T23:59:56.581Z,59.30
